Time;durP1;ratioP1;P1;durP2;ratioP2;P2;SDS_P1;SDS_P2;PMS_P1;PMS_P2;Temp;Humidity;BMP_temperature;BMP_pressure;BME280_temperature;BME280_humidity;BME280_pressure;Samples;Min_cycle;Max_cycle;Signal;HPM_P1;HPM_P2
2021/12/05 00:21:03;;;;;;;16.90;11.18;;;2.70;99.90;;;;;;4981094;28;20050;-69
2021/12/05 00:23:39;;;;;;;17.05;10.65;;;2.70;99.90;;;;;;4981147;28;20042;-70
2021/12/05 00:26:08;;;;;;;18.98;11.80;;;2.80;99.90;;;;;;4981053;28;20014;-70
2021/12/05 01:01:07;;;;;;;17.75;12.00;;;2.70;99.90;;;;;;4902186;29;20036;-69
2021/12/05 01:16:18;;;;;;;14.95;11.25;;;2.70;99.90;;;;;;4901778;29;20051;-67
2021/12/05 01:18:45;;;;;;;16.48;11.38;;;2.80;99.90;;;;;;4885969;29;20307;-69
2021/12/05 01:21:16;;;;;;;18.95;12.05;;;2.80;99.90;;;;;;4948366;29;20330;-66
2021/12/05 01:24:00;;;;;;;16.45;12.15;;;2.80;99.90;;;;;;4960367;28;20373;-67
2021/12/05 01:31:52;;;;;;;17.23;11.63;;;2.80;99.90;;;;;;4960730;28;20019;-66
2021/12/05 01:37:36;;;;;;;16.02;11.50;;;2.90;99.90;;;;;;4882815;29;20067;-66
2021/12/05 01:59:27;;;;;;;17.42;11.30;;;2.70;99.90;;;;;;4885496;29;20040;-66
2021/12/05 02:02:31;;;;;;;16.60;10.93;;;2.80;99.90;;;;;;4885656;29;20335;-66
2021/12/05 02:34:53;;;;;;;15.55;10.10;;;2.80;99.90;;;;;;4982796;28;20019;-67
2021/12/05 02:45:28;;;;;;;17.80;11.25;;;2.80;99.90;;;;;;4969039;28;20117;-66
2021/12/05 02:47:54;;;;;;;18.55;12.13;;;2.80;99.90;;;;;;4982495;28;20026;-66
2021/12/05 02:50:25;;;;;;;17.25;11.48;;;2.80;99.90;;;;;;4965083;28;20206;-67
2021/12/05 02:52:53;;;;;;;18.83;12.68;;;2.80;99.90;;;;;;4964452;28;20070;-67
2021/12/05 02:55:27;;;;;;;;;;;2.80;99.90;;;;;;4965433;28;20026;-66
2021/12/05 02:58:01;;;;;;;16.65;11.65;;;2.80;99.90;;;;;;4982170;28;19902;-67
2021/12/05 03:00:53;;;;;;;19.38;12.05;;;2.90;99.90;;;;;;4982395;28;20018;-66
2021/12/05 03:03:23;;;;;;;16.77;10.85;;;2.90;99.90;;;;;;4982294;28;20033;-66
2021/12/05 03:05:55;;;;;;;18.20;11.93;;;3.00;99.90;;;;;;4982657;28;20050;-67
2021/12/05 03:08:22;;;;;;;17.67;11.45;;;3.00;99.90;;;;;;4964163;28;20247;-67
2021/12/05 03:10:50;;;;;;;17.88;12.93;;;3.00;99.90;;;;;;4982321;28;20116;-66
2021/12/05 03:13:16;;;;;;;21.30;13.98;;;2.90;99.90;;;;;;4964492;28;20071;-66
2021/12/05 03:15:42;;;;;;;18.60;13.15;;;3.00;99.90;;;;;;4981740;28;20031;-66
2021/12/05 03:18:08;;;;;;;20.98;13.90;;;2.90;99.90;;;;;;4964083;28;20213;-67
2021/12/05 03:20:34;;;;;;;20.77;13.80;;;2.90;99.90;;;;;;4981862;28;20369;-66
2021/12/05 03:23:00;;;;;;;21.08;14.02;;;2.90;99.90;;;;;;4981431;28;20054;-67
2021/12/05 03:25:26;;;;;;;21.38;14.05;;;2.90;99.90;;;;;;4981694;28;20022;-66
2021/12/05 03:27:53;;;;;;;19.00;13.50;;;2.90;99.90;;;;;;4981084;28;20077;-67
2021/12/05 03:30:22;;;;;;;22.77;15.00;;;2.80;99.90;;;;;;4981709;28;20050;-67
2021/12/05 03:32:50;;;;;;;22.70;14.98;;;2.80;99.90;;;;;;4981800;28;20026;-67
2021/12/05 03:35:17;;;;;;;20.23;14.02;;;2.90;99.90;;;;;;4981715;28;20242;-66
2021/12/05 03:37:43;;;;;;;20.77;13.73;;;2.90;99.90;;;;;;4981633;28;20022;-66
2021/12/05 03:40:10;;;;;;;20.45;14.68;;;2.90;99.90;;;;;;4981136;28;20154;-65
2021/12/05 03:42:36;;;;;;;20.27;13.88;;;2.90;99.90;;;;;;4981775;28;20030;-66
2021/12/05 03:45:08;;;;;;;20.48;14.38;;;2.80;99.90;;;;;;4980759;28;20018;-66
2021/12/05 03:47:34;;;;;;;21.30;14.43;;;2.80;99.90;;;;;;4964387;28;20019;-68
2021/12/05 03:49:59;;;;;;;23.90;15.88;;;2.80;99.90;;;;;;4980826;28;20099;-66
2021/12/05 03:52:25;;;;;;;23.05;14.23;;;2.80;99.90;;;;;;4981514;28;20073;-66
2021/12/05 03:54:51;;;;;;;19.80;13.70;;;2.80;99.90;;;;;;4980541;28;20073;-68
2021/12/05 03:57:17;;;;;;;20.35;14.00;;;2.90;99.90;;;;;;4981495;28;20018;-66
2021/12/05 03:59:44;;;;;;;23.83;14.40;;;3.00;99.90;;;;;;4981268;28;20030;-67
2021/12/05 04:02:10;;;;;;;17.83;13.07;;;3.00;99.90;;;;;;4980682;28;20041;-68
2021/12/05 04:04:36;;;;;;;21.20;14.93;;;2.90;99.90;;;;;;4981128;28;20255;-66
2021/12/05 04:07:20;;;;;;;19.30;13.40;;;3.00;99.90;;;;;;4980691;28;20015;-67
2021/12/05 04:09:46;;;;;;;20.55;13.77;;;2.90;99.90;;;;;;4981078;28;20054;-66
2021/12/05 04:12:15;;;;;;;20.83;14.80;;;2.90;99.90;;;;;;4963372;28;20019;-66
2021/12/05 04:14:44;;;;;;;21.58;14.55;;;2.90;99.90;;;;;;4980965;28;20073;-69
2021/12/05 04:17:13;;;;;;;21.92;14.50;;;2.90;99.90;;;;;;4980225;28;20022;-66
2021/12/05 04:19:40;;;;;;;21.02;14.70;;;2.90;99.90;;;;;;4963481;28;20030;-66
2021/12/05 04:22:07;;;;;;;20.85;14.65;;;2.90;99.90;;;;;;4980473;28;20098;-66
2021/12/05 04:24:33;;;;;;;20.27;14.40;;;2.90;99.90;;;;;;4963348;28;20023;-66
2021/12/05 04:26:59;;;;;;;20.63;14.15;;;2.90;99.90;;;;;;4963111;28;20018;-67
2021/12/05 04:29:26;;;;;;;20.65;14.80;;;2.90;99.90;;;;;;4980664;28;20209;-67
2021/12/05 04:31:52;;;;;;;23.52;15.23;;;2.90;99.90;;;;;;4980607;28;20018;-70
2021/12/05 04:34:17;;;;;;;21.45;14.73;;;2.90;99.90;;;;;;4980509;28;20045;-69
2021/12/05 04:36:44;;;;;;;22.27;15.90;;;2.90;99.90;;;;;;4980837;28;20023;-66
2021/12/05 04:39:12;;;;;;;21.88;14.30;;;2.80;99.90;;;;;;4962818;28;20047;-67
2021/12/05 04:41:43;;;;;;;24.03;15.80;;;2.80;99.90;;;;;;4980910;28;20191;-66
2021/12/05 04:44:09;;;;;;;22.70;15.65;;;2.90;99.90;;;;;;4979958;28;20258;-68
2021/12/05 04:46:35;;;;;;;22.58;14.85;;;2.80;99.90;;;;;;4963522;28;20098;-68
2021/12/05 04:49:02;;;;;;;23.70;15.15;;;2.80;99.90;;;;;;4980028;28;20089;-66
2021/12/05 04:51:33;;;;;;;21.85;15.15;;;2.80;99.90;;;;;;4962969;28;20039;-68
2021/12/05 04:54:00;;;;;;;22.52;15.55;;;2.80;99.90;;;;;;4979946;28;20038;-66
2021/12/05 04:56:27;;;;;;;26.38;15.95;;;2.90;99.90;;;;;;4980630;28;20019;-66
2021/12/05 04:58:54;;;;;;;21.77;15.30;;;2.90;99.90;;;;;;4980106;28;20033;-67
2021/12/05 05:01:20;;;;;;;21.88;14.27;;;2.90;99.90;;;;;;4963173;28;20185;-67
2021/12/05 05:03:47;;;;;;;20.25;14.50;;;2.90;99.90;;;;;;4980259;28;20050;-66
2021/12/05 05:06:14;;;;;;;18.60;13.52;;;2.90;99.90;;;;;;4980189;28;20070;-67
2021/12/05 05:08:42;;;;;;;24.73;15.43;;;2.90;99.90;;;;;;4980321;28;20023;-66
2021/12/05 05:11:11;;;;;;;21.20;13.98;;;2.90;99.90;;;;;;4979773;28;20046;-69
2021/12/05 05:13:37;;;;;;;22.30;16.15;;;2.90;99.90;;;;;;4962988;28;20279;-67
2021/12/05 05:16:05;;;;;;;21.73;15.43;;;2.90;99.90;;;;;;4980015;28;20096;-66
2021/12/05 05:18:40;;;;;;;24.95;16.48;;;2.90;99.90;;;;;;4980304;28;20023;-67
2021/12/05 05:47:50;;;;;;;22.58;15.82;;;3.00;99.90;;;;;;4983936;28;20070;-67
2021/12/05 05:50:18;;;;;;;24.85;16.30;;;3.00;99.90;;;;;;4965905;28;20033;-66
2021/12/05 05:52:44;;;;;;;24.85;15.23;;;3.10;99.90;;;;;;4983923;28;20051;-67
2021/12/05 05:55:11;;;;;;;24.73;15.57;;;3.10;99.90;;;;;;4965885;28;20077;-67
2021/12/05 06:00:19;;;;;;;22.80;16.83;;;3.10;99.90;;;;;;4983118;28;20081;-67
2021/12/05 06:05:49;;;;;;;21.25;14.88;;;3.10;99.90;;;;;;4983728;28;20033;-66
2021/12/05 06:08:14;;;;;;;21.42;14.45;;;3.10;99.90;;;;;;4983116;28;20093;-68
2021/12/05 06:10:41;;;;;;;22.30;14.60;;;3.20;99.90;;;;;;4983481;28;20265;-67
2021/12/05 06:13:07;;;;;;;22.83;14.65;;;3.20;99.90;;;;;;4983142;28;20051;-67
2021/12/05 06:15:32;;;;;;;22.35;15.63;;;3.20;99.90;;;;;;4983526;28;20027;-68
2021/12/05 06:17:59;;;;;;;23.52;15.88;;;3.20;99.90;;;;;;4965636;28;20058;-67
2021/12/05 06:20:27;;;;;;;22.95;15.32;;;3.30;99.90;;;;;;4965725;28;20328;-67
2021/12/05 06:22:54;;;;;;;23.58;16.27;;;3.30;99.90;;;;;;4983252;28;20205;-66
2021/12/05 06:25:24;;;;;;;24.40;16.60;;;3.30;99.90;;;;;;4965663;28;20030;-66
2021/12/05 06:27:52;;;;;;;22.60;16.52;;;3.30;99.90;;;;;;4983191;28;20089;-66
2021/12/05 06:30:31;;;;;;;37.55;18.88;;;3.20;99.90;;;;;;4982566;28;20026;-69
2021/12/05 06:48:29;;;;;;;20.88;15.07;;;3.10;99.90;;;;;;4982843;28;20093;-66
2021/12/05 06:50:55;;;;;;;25.25;17.08;;;3.00;99.90;;;;;;4982458;28;20027;-67
2021/12/05 06:53:20;;;;;;;25.70;16.92;;;3.00;99.90;;;;;;4961968;28;20065;-66
2021/12/05 06:55:46;;;;;;;26.77;17.67;;;3.00;99.90;;;;;;4963556;28;20042;-66
2021/12/05 06:58:12;;;;;;;25.85;17.20;;;3.00;99.90;;;;;;4962792;29;20026;-66
2021/12/05 07:00:38;;;;;;;30.33;18.05;;;3.00;99.90;;;;;;4962943;29;20023;-69
2021/12/05 07:03:03;;;;;;;26.92;17.33;;;3.00;99.90;;;;;;4961595;29;20023;-66
2021/12/05 07:08:16;;;;;;;26.45;17.92;;;3.00;99.90;;;;;;4962519;29;20050;-66
2021/12/05 07:11:32;;;;;;;24.60;17.63;;;3.00;99.90;;;;;;4961936;29;20050;-66
2021/12/05 07:16:30;;;;;;;27.30;17.83;;;3.00;99.90;;;;;;4962773;29;20076;-66
2021/12/05 07:42:41;;;;;;;30.70;19.70;;;3.30;99.90;;;;;;4962930;29;20034;-68
2021/12/05 07:45:09;;;;;;;27.33;18.45;;;3.40;99.90;;;;;;4961066;29;20023;-67
2021/12/05 07:47:37;;;;;;;31.55;19.38;;;3.40;99.90;;;;;;4962674;28;20035;-67
2021/12/05 07:50:08;;;;;;;28.95;19.73;;;3.40;99.90;;;;;;4960706;29;20031;-67
2021/12/05 07:52:37;;;;;;;30.92;19.23;;;3.40;99.90;;;;;;4971740;28;20078;-67
2021/12/05 07:55:13;;;;;;;28.05;19.33;;;3.50;99.90;;;;;;4963491;28;20019;-67
2021/12/05 07:57:59;;;;;;;28.92;18.95;;;3.50;99.90;;;;;;4981591;28;20198;-67
2021/12/05 08:16:44;;;;;;;5.60;4.13;;;3.90;99.90;;;;;;4981074;28;20332;-67
2021/12/05 08:19:29;;;;;;;4.82;3.78;;;3.90;99.90;;;;;;4980605;28;20018;-66
2021/12/05 08:21:55;;;;;;;4.70;4.20;;;4.00;99.90;;;;;;4964057;28;20090;-67
2021/12/05 08:24:30;;;;;;;6.30;4.43;;;4.10;99.90;;;;;;4980803;28;20365;-67
2021/12/05 08:26:56;;;;;;;6.97;5.03;;;4.10;99.90;;;;;;4981317;28;20056;-67
2021/12/05 08:29:28;;;;;;;8.18;5.65;;;4.20;99.90;;;;;;4980584;28;20023;-68
2021/12/05 08:32:07;;;;;;;4.78;3.60;;;4.20;99.90;;;;;;4981174;28;20027;-67
2021/12/05 08:34:51;;;;;;;2.83;2.58;;;4.30;99.90;;;;;;4963788;28;20030;-67
2021/12/05 10:02:46;;;;;;;2.35;1.20;;;4.80;99.90;;;;;;4979870;28;20033;-67
2021/12/05 10:13:24;;;;;;;1.88;1.20;;;4.80;99.90;;;;;;4979696;28;20215;-67
2021/12/05 10:16:17;;;;;;;2.55;1.42;;;4.80;99.90;;;;;;4979903;28;20069;-66
2021/12/05 10:38:12;;;;;;;4.93;1.73;;;4.90;99.90;;;;;;4983202;28;20014;-69
2021/12/05 10:40:58;;;;;;;2.70;1.25;;;4.90;99.90;;;;;;4982746;28;20430;-70
2021/12/05 10:43:28;;;;;;;3.53;1.67;;;4.90;99.90;;;;;;4965663;28;20074;-66
2021/12/05 10:46:15;;;;;;;4.03;1.80;;;4.80;99.90;;;;;;4982866;28;20023;-66
2021/12/05 10:48:53;;;;;;;3.78;1.60;;;4.90;99.90;;;;;;4983038;28;20029;-67
2021/12/05 10:51:24;;;;;;;1.80;1.13;;;4.80;99.90;;;;;;4982498;28;20306;-66
2021/12/05 10:53:54;;;;;;;3.10;1.20;;;4.80;99.90;;;;;;4965423;28;20101;-67
2021/12/05 10:56:44;;;;;;;2.95;1.55;;;4.90;99.90;;;;;;4965000;28;20102;-67
2021/12/05 10:59:32;;;;;;;4.03;1.67;;;4.90;99.90;;;;;;4982100;28;20030;-66
2021/12/05 11:02:00;;;;;;;3.72;1.67;;;4.90;99.90;;;;;;4982748;28;20027;-69
2021/12/05 11:04:26;;;;;;;4.40;1.70;;;4.90;99.90;;;;;;4982712;28;20027;-69
2021/12/05 11:06:59;;;;;;;3.08;1.35;;;4.90;99.90;;;;;;4965430;28;20321;-68
2021/12/05 11:09:38;;;;;;;3.85;1.88;;;5.00;99.90;;;;;;4982372;28;20302;-67
2021/12/05 11:12:32;;;;;;;3.50;1.70;;;5.00;99.90;;;;;;4964965;28;20023;-67
2021/12/05 11:15:16;;;;;;;3.55;1.33;;;5.00;99.90;;;;;;4982153;28;20164;-70
2021/12/05 11:17:46;;;;;;;4.40;1.90;;;5.00;99.90;;;;;;4949721;28;20033;-67
2021/12/05 11:20:28;;;;;;;3.33;1.33;;;5.00;99.90;;;;;;4981450;28;20325;-68
2021/12/05 11:22:56;;;;;;;5.97;1.92;;;5.00;99.90;;;;;;4965236;28;20114;-68
2021/12/05 11:25:26;;;;;;;3.85;1.15;;;5.00;99.90;;;;;;4964487;28;20066;-67
2021/12/05 11:27:58;;;;;;;4.10;1.50;;;5.00;99.90;;;;;;4982393;28;20030;-67
2021/12/05 11:30:33;;;;;;;4.45;1.40;;;5.00;99.90;;;;;;4964477;28;20050;-67
2021/12/05 11:33:19;;;;;;;2.15;1.20;;;5.00;99.90;;;;;;4964353;28;20031;-70
2021/12/05 11:35:50;;;;;;;3.38;1.27;;;5.00;99.90;;;;;;4964591;28;20097;-68
2021/12/05 11:38:21;;;;;;;2.75;1.48;;;5.00;99.90;;;;;;4981955;28;20038;-66
2021/12/05 11:41:06;;;;;;;3.78;1.58;;;5.00;99.90;;;;;;4981841;28;20031;-66
2021/12/05 11:43:36;;;;;;;2.80;1.30;;;5.00;99.90;;;;;;4964728;28;20034;-66
2021/12/05 11:46:20;;;;;;;3.80;1.90;;;5.10;99.90;;;;;;4963974;28;20047;-66
2021/12/05 11:48:57;;;;;;;3.80;2.53;;;5.10;99.90;;;;;;4964495;28;20023;-69
2021/12/05 11:51:33;;;;;;;6.65;4.15;;;5.10;99.90;;;;;;4981857;28;20049;-66
2021/12/05 11:54:01;;;;;;;6.50;1.73;;;5.10;99.90;;;;;;4980734;28;20101;-67
2021/12/05 11:56:29;;;;;;;5.25;1.08;;;5.10;99.90;;;;;;4981860;28;20023;-67
2021/12/05 11:59:18;;;;;;;4.82;1.45;;;5.10;99.90;;;;;;4964039;28;20019;-67
2021/12/05 12:02:14;;;;;;;4.10;1.05;;;5.20;99.90;;;;;;4964275;28;20031;-67
2021/12/05 12:04:48;;;;;;;4.82;1.00;;;5.20;99.90;;;;;;4964160;28;20022;-67
2021/12/05 12:07:35;;;;;;;7.55;1.20;;;5.20;99.90;;;;;;4981015;28;20349;-67
2021/12/05 12:10:31;;;;;;;3.78;1.30;;;5.20;99.90;;;;;;4963395;28;20026;-69
2021/12/05 12:13:10;;;;;;;2.80;1.40;;;5.20;99.90;;;;;;4981521;28;20097;-67
2021/12/05 12:15:38;;;;;;;3.92;0.73;;;5.20;99.90;;;;;;4964213;28;20022;-68
2021/12/05 12:18:13;;;;;;;1.88;0.70;;;5.10;99.90;;;;;;4963638;28;20018;-67
2021/12/05 12:20:40;;;;;;;2.15;1.13;;;5.10;99.90;;;;;;4963550;28;20022;-67
2021/12/05 12:23:07;;;;;;;8.00;3.38;;;5.10;99.90;;;;;;4963237;28;20023;-68
2021/12/05 12:25:37;;;;;;;4.70;1.40;;;5.10;99.90;;;;;;4963740;28;20015;-68
2021/12/05 12:28:04;;;;;;;3.30;1.20;;;5.10;99.90;;;;;;4980715;28;20022;-68
2021/12/05 12:30:33;;;;;;;4.68;1.20;;;5.10;99.90;;;;;;4980711;28;20294;-68
2021/12/05 12:33:05;;;;;;;3.25;1.25;;;5.20;99.90;;;;;;4963356;28;20029;-71
2021/12/05 12:35:35;;;;;;;5.90;1.27;;;5.20;99.90;;;;;;4981167;28;20065;-67
2021/12/05 12:38:08;;;;;;;5.63;2.42;;;5.20;99.90;;;;;;4963202;28;20122;-65
2021/12/05 12:40:35;;;;;;;6.18;1.65;;;5.20;99.90;;;;;;4963032;28;20205;-67
2021/12/05 12:43:01;;;;;;;4.65;1.40;;;5.20;99.90;;;;;;4962947;28;20298;-68
2021/12/05 12:45:28;;;;;;;3.63;1.40;;;5.20;99.90;;;;;;4980928;28;20053;-69
2021/12/05 12:47:58;;;;;;;3.75;1.48;;;5.20;99.90;;;;;;4980947;28;20018;-68
2021/12/05 12:50:40;;;;;;;4.93;1.13;;;5.20;99.90;;;;;;4963362;28;20027;-67
2021/12/05 12:53:17;;;;;;;3.10;1.98;;;5.20;99.90;;;;;;4962770;28;20092;-66
2021/12/05 12:55:50;;;;;;;4.78;1.45;;;5.20;99.90;;;;;;4981013;28;20023;-66
2021/12/05 12:58:36;;;;;;;6.47;2.08;;;5.30;99.90;;;;;;4980219;28;20050;-66
2021/12/05 13:01:16;;;;;;;2.67;1.15;;;5.20;99.90;;;;;;4962839;28;20031;-67
2021/12/05 13:12:48;;;;;;;1.73;0.85;;;5.20;99.90;;;;;;4963644;28;20023;-66
2021/12/05 13:15:36;;;;;;;5.10;1.63;;;5.20;99.90;;;;;;4980378;28;20081;-66
2021/12/05 13:18:08;;;;;;;2.65;1.00;;;5.10;99.90;;;;;;4962712;28;20061;-66
2021/12/05 13:20:42;;;;;;;3.83;0.75;;;5.10;99.90;;;;;;4980439;28;20138;-67
2021/12/05 13:23:20;;;;;;;3.03;1.30;;;5.10;99.90;;;;;;4979607;28;20384;-67
2021/12/05 13:26:06;;;;;;;4.35;1.40;;;5.10;99.90;;;;;;4980537;28;20025;-67
2021/12/05 13:28:35;;;;;;;3.20;1.00;;;5.10;99.90;;;;;;4980184;28;20029;-67
2021/12/05 13:31:26;;;;;;;3.40;1.35;;;5.10;99.90;;;;;;4979889;28;20027;-68
2021/12/05 13:34:15;;;;;;;4.03;1.23;;;5.10;99.90;;;;;;4962764;28;20023;-67
2021/12/05 13:36:42;;;;;;;3.22;1.58;;;5.10;99.90;;;;;;4980173;28;20058;-67
2021/12/05 13:39:28;;;;;;;2.90;1.10;;;5.10;99.90;;;;;;4979660;28;20026;-67
2021/12/05 13:42:15;;;;;;;3.78;0.95;;;5.10;99.90;;;;;;4979562;28;20105;-66
2021/12/05 13:45:15;;;;;;;5.85;1.05;;;5.10;99.90;;;;;;4962855;28;20019;-67
2021/12/05 13:48:05;;;;;;;5.68;0.95;;;5.10;99.90;;;;;;4945819;28;20031;-67
2021/12/05 13:50:43;;;;;;;4.75;1.80;;;5.10;99.90;;;;;;4962742;28;20089;-67
2021/12/05 13:53:10;;;;;;;3.38;1.77;;;5.10;99.90;;;;;;4981969;28;20106;-67
2021/12/05 13:55:41;;;;;;;4.13;1.27;;;5.10;99.90;;;;;;4983961;28;20029;-68
2021/12/05 13:58:28;;;;;;;8.30;1.48;;;5.10;99.90;;;;;;4983511;28;20023;-68
2021/12/05 14:00:57;;;;;;;4.90;1.42;;;5.10;99.90;;;;;;4966473;28;20035;-65
2021/12/05 14:03:41;;;;;;;;;;;5.00;99.90;;;;;;4983786;28;20019;-68
2021/12/05 14:06:34;;;;;;;2.47;1.67;;;5.00;99.90;;;;;;4983296;28;19902;-66
2021/12/05 14:09:33;;;;;;;3.28;1.70;;;5.00;99.90;;;;;;4966071;28;20364;-67
2021/12/05 14:12:07;;;;;;;24.05;8.00;;;4.90;99.90;;;;;;4966083;28;20054;-66
2021/12/05 14:14:43;;;;;;;4.55;2.70;;;4.90;99.90;;;;;;4983610;28;20046;-67
2021/12/05 14:17:20;;;;;;;15.43;6.47;;;4.90;99.90;;;;;;4965588;28;20026;-68
2021/12/05 14:20:01;;;;;;;5.05;1.90;;;4.90;99.90;;;;;;4965916;28;20313;-67
2021/12/05 14:22:31;;;;;;;6.05;2.03;;;4.90;99.90;;;;;;4966223;28;20098;-70
2021/12/05 14:25:02;;;;;;;6.97;4.80;;;4.90;99.90;;;;;;4966011;28;20325;-67
2021/12/05 14:27:30;;;;;;;10.77;5.50;;;4.90;99.90;;;;;;4983049;28;20085;-70
2021/12/05 14:29:56;;;;;;;7.57;4.82;;;4.90;99.90;;;;;;4983233;28;20019;-67
2021/12/05 14:32:29;;;;;;;5.85;3.13;;;4.90;99.90;;;;;;4983032;28;20046;-67
2021/12/05 14:35:01;;;;;;;5.40;3.20;;;4.90;99.90;;;;;;4983266;28;20097;-67
2021/12/05 14:37:33;;;;;;;5.35;3.20;;;4.90;99.90;;;;;;4982933;28;20042;-70
2021/12/05 14:40:20;;;;;;;5.10;2.40;;;4.90;99.90;;;;;;4982963;28;20154;-67
2021/12/05 14:42:50;;;;;;;4.18;2.65;;;4.90;99.90;;;;;;4983292;28;20027;-67
2021/12/05 14:45:26;;;;;;;3.80;2.50;;;4.80;99.90;;;;;;4965186;28;20085;-67
2021/12/05 14:47:55;;;;;;;7.40;2.45;;;4.90;99.90;;;;;;4982982;28;20029;-67
2021/12/05 14:50:27;;;;;;;5.80;3.10;;;4.90;99.90;;;;;;4982212;28;20265;-68
2021/12/05 14:52:56;;;;;;;5.22;2.80;;;4.80;99.90;;;;;;4982550;28;20348;-67
2021/12/05 14:55:24;;;;;;;4.72;3.53;;;4.80;99.90;;;;;;4981967;28;20269;-67
2021/12/05 14:57:56;;;;;;;6.45;3.53;;;4.90;99.90;;;;;;4982501;28;20027;-66
2021/12/05 15:00:32;;;;;;;5.63;3.88;;;4.80;99.90;;;;;;4964601;28;20419;-66
2021/12/05 15:03:20;;;;;;;5.85;3.72;;;4.80;99.90;;;;;;4982708;28;20022;-66
2021/12/05 15:05:58;;;;;;;6.00;2.75;;;4.80;99.90;;;;;;4965007;28;20101;-67
2021/12/05 15:08:29;;;;;;;8.15;3.63;;;4.80;99.90;;;;;;4964839;28;20031;-66
2021/12/05 15:11:04;;;;;;;6.68;3.50;;;4.90;99.90;;;;;;4965452;28;20313;-68
2021/12/05 15:13:30;;;;;;;6.07;4.20;;;4.80;99.90;;;;;;4965030;28;20030;-66
2021/12/05 15:15:57;;;;;;;6.82;3.50;;;4.90;99.90;;;;;;4964931;28;20302;-66
2021/12/05 15:18:28;;;;;;;4.43;3.03;;;4.90;99.90;;;;;;4981729;28;20018;-66
2021/12/05 15:20:56;;;;;;;4.35;3.40;;;4.90;99.90;;;;;;4982295;28;20142;-67
2021/12/05 15:23:27;;;;;;;4.95;3.30;;;4.90;99.90;;;;;;4964488;28;20023;-67
2021/12/05 15:25:53;;;;;;;5.38;3.47;;;5.00;99.90;;;;;;4982486;28;20015;-68
2021/12/05 15:28:19;;;;;;;5.47;3.60;;;5.00;99.90;;;;;;4964378;28;20093;-67
2021/12/05 15:30:47;;;;;;;7.15;3.88;;;5.00;99.90;;;;;;4982308;28;20046;-66
2021/12/05 15:33:20;;;;;;;4.13;3.13;;;5.00;99.90;;;;;;4964438;28;20120;-69
2021/12/05 15:35:48;;;;;;;8.48;3.30;;;5.00;99.90;;;;;;4981973;28;20034;-67
2021/12/05 15:38:21;;;;;;;4.72;3.00;;;5.00;99.90;;;;;;4964445;28;20022;-67
2021/12/05 15:40:48;;;;;;;6.15;3.63;;;4.90;99.90;;;;;;4981621;28;20258;-68
2021/12/05 15:43:17;;;;;;;10.18;3.92;;;4.90;99.90;;;;;;4981232;28;20022;-67
2021/12/05 15:45:45;;;;;;;4.30;3.67;;;4.90;99.90;;;;;;4981932;28;20042;-66
2021/12/05 15:48:11;;;;;;;10.15;3.80;;;4.90;99.90;;;;;;4981166;28;20042;-68
2021/12/05 15:50:39;;;;;;;6.60;3.70;;;4.90;99.90;;;;;;4981572;28;20026;-66
2021/12/05 15:53:10;;;;;;;5.50;3.55;;;4.90;99.90;;;;;;4981232;28;20050;-69
2021/12/05 15:55:36;;;;;;;5.40;4.22;;;4.90;99.90;;;;;;4964076;28;20027;-67
2021/12/05 15:58:24;;;;;;;8.45;4.07;;;4.90;99.90;;;;;;4964277;28;20026;-67
2021/12/05 16:00:59;;;;;;;8.40;4.53;;;4.90;99.90;;;;;;4981347;28;20030;-67
2021/12/05 16:03:37;;;;;;;7.65;5.65;;;4.90;99.90;;;;;;4980879;28;20321;-67
2021/12/05 16:06:04;;;;;;;7.68;5.40;;;4.90;99.90;;;;;;4981349;28;20038;-70
2021/12/05 16:11:18;;;;;;;32.08;18.05;;;4.90;99.90;;;;;;4980553;28;20301;-66
2021/12/05 16:13:46;;;;;;;11.20;6.75;;;4.90;99.90;;;;;;4980999;28;20038;-67
2021/12/05 16:16:11;;;;;;;8.63;5.22;;;4.90;99.90;;;;;;4980578;28;20082;-69
2021/12/05 16:18:39;;;;;;;11.23;4.80;;;4.90;99.90;;;;;;4981313;28;20206;-66
2021/12/05 16:21:28;;;;;;;7.80;4.67;;;4.90;99.90;;;;;;4980575;28;20034;-66
2021/12/05 16:24:03;;;;;;;5.50;4.20;;;4.80;99.90;;;;;;4980991;28;20305;-67
2021/12/05 16:26:29;;;;;;;9.35;5.53;;;4.80;99.90;;;;;;4963469;28;20361;-67
2021/12/05 16:29:07;;;;;;;9.68;5.43;;;4.80;99.90;;;;;;4981326;28;20306;-67
2021/12/05 16:31:44;;;;;;;7.55;5.50;;;4.80;99.90;;;;;;4963915;28;20105;-69
2021/12/05 16:34:23;;;;;;;9.40;5.72;;;4.80;99.90;;;;;;4979921;28;20027;-67
2021/12/05 16:36:56;;;;;;;7.47;5.30;;;4.80;99.90;;;;;;4980980;28;20046;-68
2021/12/05 16:39:37;;;;;;;13.20;7.45;;;4.80;99.90;;;;;;4962758;28;20238;-66
2021/12/05 16:42:10;;;;;;;6.25;4.57;;;4.80;99.90;;;;;;4981019;28;20015;-67
2021/12/05 16:44:39;;;;;;;8.77;4.63;;;4.80;99.90;;;;;;4963404;28;20022;-67
2021/12/05 16:47:14;;;;;;;7.97;4.82;;;4.80;99.90;;;;;;4980161;28;20023;-69
2021/12/05 16:49:42;;;;;;;9.63;5.78;;;4.90;99.90;;;;;;4980540;28;20026;-68
2021/12/05 16:52:09;;;;;;;;;;;4.90;99.90;;;;;;4980187;28;20043;-67
2021/12/05 16:54:44;;;;;;;7.25;4.93;;;4.80;99.90;;;;;;4963370;28;20218;-67
2021/12/05 16:57:18;;;;;;;9.30;5.25;;;4.80;99.90;;;;;;4980067;28;20353;-69
2021/12/05 16:59:47;;;;;;;8.32;5.82;;;4.80;99.90;;;;;;4980258;28;20035;-68
2021/12/05 17:02:22;;;;;;;6.85;4.95;;;4.80;99.90;;;;;;4980120;28;20026;-68
2021/12/05 17:05:06;;;;;;;7.10;5.28;;;4.80;99.90;;;;;;4963012;28;20027;-67
2021/12/05 17:07:41;;;;;;;8.52;5.25;;;4.90;99.90;;;;;;4980348;28;20030;-66
2021/12/05 17:10:30;;;;;;;8.20;6.22;;;4.90;99.90;;;;;;4962613;28;20073;-66
2021/12/05 17:13:17;;;;;;;8.90;5.13;;;4.90;99.90;;;;;;4980604;28;20022;-66
2021/12/05 17:16:04;;;;;;;7.77;5.80;;;4.90;99.90;;;;;;4980602;28;20086;-69
2021/12/05 17:18:34;;;;;;;7.32;4.75;;;4.80;99.90;;;;;;4963043;28;20353;-67
2021/12/05 17:21:00;;;;;;;7.78;5.72;;;4.80;99.90;;;;;;4963051;28;20033;-67
2021/12/05 17:23:33;;;;;;;6.68;5.00;;;4.90;99.90;;;;;;4962757;28;20022;-68
2021/12/05 17:26:24;;;;;;;6.85;5.78;;;4.90;99.90;;;;;;4962928;28;20320;-67
2021/12/05 17:29:01;;;;;;;7.70;5.25;;;4.90;99.90;;;;;;4970448;28;20026;-67
2021/12/05 17:31:43;;;;;;;6.55;4.88;;;4.90;99.90;;;;;;4983685;28;20019;-67
2021/12/05 17:34:31;;;;;;;6.57;5.00;;;4.90;99.90;;;;;;4966345;28;20053;-67
2021/12/05 17:37:02;;;;;;;10.80;5.82;;;4.90;99.90;;;;;;4983620;28;20030;-67
2021/12/05 17:39:31;;;;;;;6.10;5.22;;;4.90;99.90;;;;;;4983248;28;20019;-67
2021/12/05 17:42:02;;;;;;;8.73;6.35;;;4.80;99.90;;;;;;4966889;28;20069;-67
2021/12/05 17:44:28;;;;;;;6.60;5.55;;;4.90;99.90;;;;;;4983428;28;20019;-66
2021/12/05 17:46:58;;;;;;;10.10;7.07;;;4.90;99.90;;;;;;4951005;28;20029;-67
2021/12/05 17:49:27;;;;;;;10.38;7.00;;;4.80;99.90;;;;;;4966151;28;20321;-67
2021/12/05 17:51:54;;;;;;;13.85;7.20;;;4.80;99.90;;;;;;4966220;28;20070;-66
2021/12/05 17:54:29;;;;;;;14.23;5.90;;;4.80;99.90;;;;;;4983280;28;20102;-67
2021/12/05 17:56:56;;;;;;;9.23;6.65;;;4.80;99.90;;;;;;4984033;28;20246;-67
2021/12/05 17:59:36;;;;;;;12.30;7.63;;;4.70;99.90;;;;;;4983134;28;20014;-66
2021/12/05 18:04:52;;;;;;;9.02;6.43;;;4.70;99.90;;;;;;4983075;28;20234;-67
2021/12/05 18:07:19;;;;;;;9.25;6.13;;;4.70;99.90;;;;;;4983050;28;20082;-68
2021/12/05 18:09:45;;;;;;;8.55;6.05;;;4.70;99.90;;;;;;4966172;28;20210;-68
2021/12/05 18:12:19;;;;;;;8.68;5.95;;;4.70;99.90;;;;;;4965618;28;20023;-66
2021/12/05 18:14:46;;;;;;;9.27;5.55;;;4.70;99.90;;;;;;4983486;28;20015;-68
2021/12/05 18:17:11;;;;;;;7.82;5.03;;;4.70;99.90;;;;;;4965457;28;20330;-67
2021/12/05 18:19:38;;;;;;;9.45;5.68;;;4.60;99.90;;;;;;4983138;28;20063;-69
2021/12/05 18:22:04;;;;;;;10.15;6.80;;;4.60;99.90;;;;;;4966212;28;20037;-67
2021/12/05 18:24:31;;;;;;;6.85;5.03;;;4.60;99.90;;;;;;4965176;28;20023;-68
2021/12/05 18:26:58;;;;;;;9.18;6.60;;;4.60;99.90;;;;;;4982996;28;20023;-70
2021/12/05 18:29:24;;;;;;;10.55;5.93;;;4.60;99.90;;;;;;4982693;28;20029;-66
2021/12/05 18:31:51;;;;;;;10.05;5.32;;;4.60;99.90;;;;;;4965704;28;20049;-66
2021/12/05 18:34:26;;;;;;;8.88;6.05;;;4.60;99.90;;;;;;4982238;28;20306;-66
2021/12/05 18:36:55;;;;;;;12.13;6.40;;;4.60;99.90;;;;;;4982851;28;20099;-68
2021/12/05 18:39:27;;;;;;;10.23;7.03;;;4.60;99.90;;;;;;4982414;28;20082;-66
2021/12/05 18:41:56;;;;;;;10.13;5.97;;;4.60;99.90;;;;;;4983222;28;20054;-67
2021/12/05 18:44:26;;;;;;;7.32;5.57;;;4.60;99.90;;;;;;4981981;28;20027;-68
2021/12/05 18:46:55;;;;;;;9.65;6.05;;;4.60;99.90;;;;;;4965820;28;20023;-68
2021/12/05 18:49:22;;;;;;;9.07;5.55;;;4.60;99.90;;;;;;4982274;28;20028;-67
2021/12/05 18:51:49;;;;;;;6.05;5.10;;;4.60;99.90;;;;;;4982609;28;20113;-68
2021/12/05 18:54:14;;;;;;;12.77;7.40;;;4.60;99.90;;;;;;4982068;28;20054;-67
2021/12/05 18:56:40;;;;;;;6.25;4.75;;;4.60;99.90;;;;;;4982765;28;20046;-70
2021/12/05 18:59:07;;;;;;;11.07;7.18;;;4.60;99.90;;;;;;4982495;28;20069;-67
2021/12/05 19:04:33;;;;;;;9.15;5.80;;;4.60;99.90;;;;;;4981801;28;20305;-67
2021/12/05 19:07:14;;;;;;;10.38;5.80;;;4.60;99.90;;;;;;4982554;28;20033;-67
2021/12/05 19:12:25;;;;;;;8.88;5.68;;;4.60;99.90;;;;;;4982190;28;20026;-67
2021/12/05 19:14:54;;;;;;;8.32;6.25;;;4.60;99.90;;;;;;4982188;28;20310;-66